Ashmont, Canada
Current Conditions -  °F | °C
As of 9:00 AM on Saturday 20 Dec 2014 (Local Time) from CYOD Reporting Station
Overcast Overcast  
Wind Chill: 16°   Ceiling: 16000
Heat Index: 16°   Visibility: 15mi
Dew Point: 14°   Wind: 0mph
Humidity: 93%   Direction: NA
Pressure: 29.71"   Gusts: NA
Location:  54.13°N, 111.57°W
Report Text: CYOD 201600Z 00000KT 15SM BKN160 OVC240 M09/M10 A2971 RMKAC6CI2 SLP102
Loading
Personal Weather Stations






























Interactive Weather Map New forecast layout! Learn more

10-Day Weather Forecast

Advertisements
Track Severe Weather on mobile